Time;durP1;ratioP1;P1;durP2;ratioP2;P2;SDS_P1;SDS_P2;PMS_P1;PMS_P2;Temp;Humidity;BMP_temperature;BMP_pressure;BME280_temperature;BME280_humidity;BME280_pressure;Samples;Min_cycle;Max_cycle;Signal;HPM_P1;HPM_P2
2022/11/04 00:01:49;;;;;;;5.53;2.78;;;11.50;99.90;;;;;;5041949;28;20029;-73
2022/11/04 00:04:17;;;;;;;3.20;2.90;;;11.50;99.90;;;;;;5043279;28;20033;-73
2022/11/04 00:06:43;;;;;;;3.70;3.40;;;11.50;99.90;;;;;;5042176;28;20104;-76
2022/11/04 00:09:11;;;;;;;4.38;3.05;;;11.40;99.90;;;;;;5038831;28;20466;-77
2022/11/04 00:14:21;;;;;;;3.92;3.63;;;11.40;99.90;;;;;;5041542;28;20032;-78
2022/11/04 00:30:33;;;;;;;4.32;3.97;;;11.30;99.90;;;;;;5043414;28;20121;-75
2022/11/04 00:35:50;;;;;;;5.00;4.18;;;11.30;99.90;;;;;;5044860;28;20082;-79
2022/11/04 00:38:16;;;;;;;;;;;11.30;99.90;;;;;;5039700;28;20079;-77
2022/11/04 00:40:43;;;;;;;5.00;4.50;;;11.30;99.90;;;;;;5045944;28;19917;-77
2022/11/04 00:43:09;;;;;;;4.75;4.35;;;11.30;99.90;;;;;;5044471;28;20021;-74
2022/11/04 00:45:35;;;;;;;7.05;4.78;;;11.30;99.90;;;;;;5038253;28;20552;-78
2022/11/04 00:48:00;;;;;;;6.43;5.43;;;11.30;99.90;;;;;;5040862;28;20028;-78
2022/11/04 00:50:26;;;;;;;5.30;4.22;;;11.30;99.90;;;;;;5042862;28;20032;-74
2022/11/04 00:53:01;;;;;;;5.68;4.93;;;11.20;99.90;;;;;;5042687;28;20028;-72
2022/11/04 00:55:27;;;;;;;5.47;4.65;;;11.10;99.90;;;;;;5040162;28;20029;-75
2022/11/04 00:57:54;;;;;;;5.55;4.72;;;11.20;99.90;;;;;;5040518;28;20044;-76
2022/11/04 01:00:19;;;;;;;6.55;5.10;;;11.30;99.90;;;;;;5041478;28;20449;-75
2022/11/04 01:02:46;;;;;;;5.57;5.03;;;11.20;99.90;;;;;;5042574;28;20166;-74
2022/11/04 01:05:11;;;;;;;7.20;4.32;;;11.20;99.90;;;;;;5044103;28;20071;-73
2022/11/04 01:07:37;;;;;;;5.55;4.90;;;11.20;99.90;;;;;;5044170;28;20055;-78
2022/11/04 01:10:05;;;;;;;6.25;5.38;;;11.20;99.90;;;;;;5046717;28;20028;-76
2022/11/04 01:12:30;;;;;;;6.97;4.93;;;11.20;99.90;;;;;;5042697;28;20376;-74
2022/11/04 01:14:56;;;;;;;5.85;4.55;;;11.10;99.90;;;;;;5044694;28;20025;-72
2022/11/04 01:17:22;;;;;;;5.63;4.63;;;11.10;99.90;;;;;;5037996;28;20378;-74
2022/11/04 01:19:50;;;;;;;7.53;5.10;;;11.10;99.90;;;;;;5057318;28;20194;-77
2022/11/04 01:22:18;;;;;;;5.85;5.20;;;11.10;99.90;;;;;;5040974;28;20634;-78
2022/11/04 01:24:44;;;;;;;7.70;5.53;;;11.10;99.90;;;;;;5046049;28;20189;-79
2022/11/04 01:27:11;;;;;;;5.45;4.90;;;11.00;99.90;;;;;;5052301;28;20108;-73
2022/11/04 01:29:40;;;;;;;9.35;5.35;;;10.90;99.90;;;;;;5046231;28;20025;-77
2022/11/04 01:32:05;;;;;;;7.68;5.90;;;11.00;99.90;;;;;;5074297;28;20048;-76
2022/11/04 01:34:33;;;;;;;11.00;5.40;;;10.90;99.90;;;;;;5039824;28;20033;-76
2022/11/04 01:36:59;;;;;;;14.82;5.85;;;10.90;99.90;;;;;;5041198;28;20021;-77
2022/11/04 01:39:25;;;;;;;7.55;6.30;;;10.80;99.90;;;;;;5037929;28;20033;-77
2022/11/04 01:41:50;;;;;;;8.40;6.68;;;10.80;99.90;;;;;;5037435;28;20083;-77
2022/11/04 01:44:41;;;;;;;13.45;6.78;;;10.80;99.90;;;;;;5038583;28;20039;-77
2022/11/04 01:47:16;;;;;;;7.88;6.22;;;10.70;99.90;;;;;;5055143;28;20485;-73
2022/11/04 01:49:49;;;;;;;9.25;5.88;;;10.70;99.90;;;;;;5040097;28;20037;-74
2022/11/04 01:52:28;;;;;;;11.25;6.50;;;10.70;99.90;;;;;;5056142;28;20120;-74
2022/11/04 01:54:58;;;;;;;10.93;6.97;;;10.70;99.90;;;;;;5068094;28;20021;-77
2022/11/04 01:57:34;;;;;;;10.38;7.25;;;10.70;99.90;;;;;;5042410;28;20055;-79
2022/11/04 02:00:03;;;;;;;9.25;6.55;;;10.70;99.90;;;;;;5043747;28;20029;-78
2022/11/04 02:02:32;;;;;;;6.35;5.72;;;10.70;99.90;;;;;;5036916;28;20013;-76
2022/11/04 02:04:57;;;;;;;8.20;6.13;;;10.70;99.90;;;;;;5045504;28;20017;-73
2022/11/04 02:07:27;;;;;;;6.97;6.28;;;10.60;99.90;;;;;;5046303;28;20797;-72
2022/11/04 02:09:53;;;;;;;6.75;6.13;;;10.60;99.90;;;;;;5046248;28;20029;-77
2022/11/04 02:15:06;;;;;;;10.10;6.35;;;10.60;99.90;;;;;;5044380;28;20108;-73
2022/11/04 02:17:45;;;;;;;8.07;6.00;;;10.60;99.90;;;;;;5046329;28;20082;-73
2022/11/04 02:20:23;;;;;;;9.98;5.82;;;10.60;99.90;;;;;;5043744;28;20096;-77
2022/11/04 02:23:26;;;;;;;16.10;5.95;;;10.60;99.90;;;;;;5044486;28;20458;-77
2022/11/04 02:26:28;;;;;;;7.55;5.07;;;10.70;99.90;;;;;;5047602;28;20096;-80
2022/11/04 02:29:27;;;;;;;10.15;5.55;;;10.60;99.90;;;;;;5063830;28;20028;-73
2022/11/04 02:32:08;;;;;;;7.25;4.68;;;10.60;99.90;;;;;;5044627;28;20100;-75
2022/11/04 02:34:43;;;;;;;12.98;5.15;;;10.70;99.90;;;;;;5045601;28;20115;-75
2022/11/04 02:37:12;;;;;;;8.25;5.05;;;10.70;99.90;;;;;;5043493;28;20033;-80
2022/11/04 02:39:45;;;;;;;11.82;5.25;;;10.70;99.90;;;;;;5041651;28;20025;-76
2022/11/04 02:42:33;;;;;;;8.80;4.95;;;10.70;99.90;;;;;;5041159;28;20021;-77
2022/11/04 02:45:13;;;;;;;7.35;4.40;;;10.80;99.90;;;;;;5039689;28;20044;-73
2022/11/04 02:47:44;;;;;;;7.78;3.70;;;10.80;99.90;;;;;;5043387;28;20029;-72
2022/11/04 02:50:24;;;;;;;5.60;4.32;;;10.80;99.90;;;;;;5049905;28;20525;-74
2022/11/04 02:53:07;;;;;;;6.32;3.63;;;10.90;99.90;;;;;;5043633;28;20086;-79
2022/11/04 02:55:39;;;;;;;9.10;4.18;;;10.90;99.90;;;;;;5041651;28;20035;-77
2022/11/04 02:58:10;;;;;;;11.18;4.95;;;10.90;99.90;;;;;;5073526;28;20148;-77
2022/11/04 03:00:40;;;;;;;7.00;4.50;;;11.00;99.90;;;;;;5041607;28;20040;-77
2022/11/04 03:03:14;;;;;;;8.80;4.20;;;11.00;99.90;;;;;;5046266;28;20774;-73
2022/11/04 03:05:43;;;;;;;7.70;4.72;;;10.90;99.90;;;;;;5075495;28;20033;-74
2022/11/04 03:08:18;;;;;;;6.97;4.18;;;10.90;99.90;;;;;;5045268;28;20017;-75
2022/11/04 03:10:49;;;;;;;9.38;4.15;;;11.00;99.90;;;;;;5043731;28;20040;-77
2022/11/04 03:13:36;;;;;;;8.13;4.18;;;11.10;99.90;;;;;;5043746;28;20442;-77
2022/11/04 03:16:08;;;;;;;10.40;4.40;;;11.10;99.90;;;;;;5051350;28;20072;-74
2022/11/04 03:18:35;;;;;;;5.18;3.72;;;11.00;99.90;;;;;;5046081;28;20029;-78
2022/11/04 03:21:06;;;;;;;7.97;3.50;;;10.90;99.90;;;;;;5040104;28;20361;-73
2022/11/04 03:23:34;;;;;;;5.10;3.30;;;10.80;99.90;;;;;;5044909;28;20073;-76
2022/11/04 03:26:20;;;;;;;7.03;3.67;;;10.80;99.90;;;;;;5042910;28;20445;-76
2022/11/04 03:29:06;;;;;;;5.95;3.10;;;10.80;99.90;;;;;;5043428;28;20041;-77
2022/11/04 03:31:45;;;;;;;4.22;3.30;;;10.70;99.90;;;;;;5039194;28;20021;-75
2022/11/04 03:34:10;;;;;;;8.13;3.05;;;10.70;99.90;;;;;;5045169;28;20081;-74
2022/11/04 03:36:36;;;;;;;7.40;2.75;;;10.60;99.90;;;;;;5040773;28;20021;-74
2022/11/04 03:39:02;;;;;;;7.57;3.25;;;10.60;99.90;;;;;;5038348;28;20032;-76
2022/11/04 03:41:42;;;;;;;10.80;2.40;;;10.60;99.90;;;;;;5047315;28;20029;-77
2022/11/04 03:44:10;;;;;;;4.40;2.30;;;10.60;99.90;;;;;;5041654;28;20078;-77
2022/11/04 03:46:37;;;;;;;3.90;2.50;;;10.50;99.90;;;;;;5043058;28;20036;-77
2022/11/04 03:49:07;;;;;;;3.92;2.20;;;10.50;99.90;;;;;;5043268;28;20331;-77
2022/11/04 03:51:32;;;;;;;12.68;2.97;;;10.50;99.90;;;;;;5043682;28;20018;-76
2022/11/04 03:53:58;;;;;;;5.18;2.03;;;10.50;99.90;;;;;;5039513;28;20045;-77
2022/11/04 03:56:52;;;;;;;8.20;1.83;;;10.50;99.90;;;;;;5042888;28;20032;-77
2022/11/04 03:59:23;;;;;;;8.65;1.95;;;10.40;99.90;;;;;;5044466;28;20400;-77
2022/11/04 04:02:00;;;;;;;5.00;1.55;;;10.40;99.90;;;;;;5049476;28;20087;-76
2022/11/04 04:04:30;;;;;;;7.13;1.67;;;10.40;99.90;;;;;;5041257;28;20468;-75
2022/11/04 04:07:34;;;;;;;8.45;1.27;;;10.30;99.90;;;;;;5040486;28;20640;-76
2022/11/04 04:13:04;;;;;;;6.57;1.30;;;10.30;99.90;;;;;;5041487;28;19934;-78
2022/11/04 04:15:43;;;;;;;7.50;1.75;;;10.30;99.90;;;;;;5044562;28;20036;-76
2022/11/04 04:18:14;;;;;;;5.75;1.70;;;10.30;99.90;;;;;;5045603;28;20049;-77
2022/11/04 04:20:41;;;;;;;13.57;2.00;;;10.30;99.90;;;;;;5039832;28;20460;-79
2022/11/04 04:28:55;;;;;;;7.88;1.75;;;10.20;99.90;;;;;;5066493;28;20028;-74
2022/11/04 04:34:06;;;;;;;10.07;2.22;;;10.20;99.90;;;;;;5042314;28;20121;-75
2022/11/04 04:36:42;;;;;;;7.07;1.90;;;10.20;99.90;;;;;;5043607;28;20434;-76
2022/11/04 04:47:33;;;;;;;7.70;2.13;;;10.20;99.90;;;;;;5042254;28;20087;-77
2022/11/04 04:50:02;;;;;;;4.25;1.88;;;10.20;99.90;;;;;;5042160;28;20039;-78
2022/11/04 04:52:32;;;;;;;6.80;2.05;;;10.20;99.90;;;;;;5042829;28;20090;-77
2022/11/04 04:55:00;;;;;;;7.10;1.63;;;10.20;99.90;;;;;;5048179;28;20028;-76
2022/11/04 04:57:26;;;;;;;5.53;1.65;;;10.20;99.90;;;;;;5041421;28;20365;-77
2022/11/04 04:59:51;;;;;;;9.57;2.17;;;10.20;99.90;;;;;;5038152;28;20029;-76
2022/11/04 05:02:17;;;;;;;5.13;1.85;;;10.20;99.90;;;;;;5053069;28;20091;-76
2022/11/04 05:04:43;;;;;;;8.40;1.63;;;10.20;99.90;;;;;;5041578;28;20580;-77
2022/11/04 05:07:11;;;;;;;6.57;1.98;;;10.30;99.90;;;;;;5043816;28;20035;-75
2022/11/04 05:09:39;;;;;;;5.90;2.05;;;10.20;99.90;;;;;;5058814;28;20056;-76
2022/11/04 05:12:08;;;;;;;7.25;2.33;;;10.20;99.90;;;;;;5045883;28;20053;-76
2022/11/04 05:14:34;;;;;;;2.85;2.05;;;10.20;99.90;;;;;;5055134;28;20025;-75
2022/11/04 05:17:00;;;;;;;4.18;1.83;;;10.20;99.90;;;;;;5052718;28;20040;-74
2022/11/04 05:19:26;;;;;;;7.75;2.05;;;10.20;99.90;;;;;;5042298;28;20028;-76
2022/11/04 05:21:51;;;;;;;5.97;2.22;;;10.20;99.90;;;;;;5046141;28;20328;-76
2022/11/04 05:24:19;;;;;;;10.80;2.35;;;10.20;99.90;;;;;;5049949;28;20044;-76
2022/11/04 05:26:45;;;;;;;7.90;3.25;;;10.20;99.90;;;;;;5042052;28;20925;-76
2022/11/04 05:29:11;;;;;;;10.35;2.42;;;10.20;99.90;;;;;;5076860;28;20067;-75
2022/11/04 05:31:37;;;;;;;12.07;2.40;;;10.20;99.90;;;;;;5056587;28;20017;-74
2022/11/04 05:34:04;;;;;;;7.00;1.90;;;10.10;99.90;;;;;;5045990;28;20109;-76
2022/11/04 05:36:31;;;;;;;6.40;2.42;;;10.10;99.90;;;;;;5039373;28;20005;-76
2022/11/04 05:38:57;;;;;;;5.88;2.42;;;10.20;99.90;;;;;;5042678;28;20028;-74
2022/11/04 05:41:26;;;;;;;7.35;2.08;;;10.20;99.90;;;;;;5038589;28;20017;-76
2022/11/04 05:43:56;;;;;;;6.68;2.15;;;10.20;99.90;;;;;;5042960;28;20033;-75
2022/11/04 05:46:22;;;;;;;7.63;2.53;;;10.20;99.90;;;;;;5050799;28;20112;-76
2022/11/04 05:48:50;;;;;;;6.68;2.50;;;10.30;99.90;;;;;;5060767;28;20026;-75
2022/11/04 05:51:19;;;;;;;6.68;2.03;;;10.30;99.90;;;;;;5043923;28;20342;-76
2022/11/04 05:53:45;;;;;;;5.00;2.63;;;10.20;99.90;;;;;;5042347;28;20065;-76
2022/11/04 05:56:11;;;;;;;6.57;2.03;;;10.30;99.90;;;;;;5040317;28;20049;-75
2022/11/04 05:58:37;;;;;;;8.50;2.67;;;10.30;99.90;;;;;;5039147;28;20083;-75
2022/11/04 06:01:32;;;;;;;5.35;2.25;;;10.40;99.90;;;;;;5042819;28;20041;-76
2022/11/04 06:03:59;;;;;;;9.38;2.38;;;10.40;99.90;;;;;;5038644;28;20041;-75
2022/11/04 06:06:31;;;;;;;5.85;2.42;;;10.50;99.90;;;;;;5038945;28;20418;-75
2022/11/04 06:08:57;;;;;;;8.88;2.50;;;10.50;99.90;;;;;;5042594;28;20082;-76
2022/11/04 06:11:24;;;;;;;7.75;2.15;;;10.60;99.90;;;;;;5040287;28;20025;-76
2022/11/04 06:13:50;;;;;;;5.85;2.42;;;10.60;99.90;;;;;;5042922;28;20102;-75
2022/11/04 06:16:16;;;;;;;6.82;2.05;;;10.50;99.90;;;;;;5044467;28;20812;-75
2022/11/04 06:18:44;;;;;;;8.40;2.45;;;10.50;99.90;;;;;;5035134;28;20037;-76
2022/11/04 06:21:21;;;;;;;3.33;2.30;;;10.50;99.90;;;;;;5044227;28;20036;-77
2022/11/04 06:23:47;;;;;;;8.20;2.15;;;10.50;99.90;;;;;;5042062;28;20018;-75
2022/11/04 06:26:13;;;;;;;5.95;2.92;;;10.50;99.90;;;;;;5044177;28;20044;-76
2022/11/04 06:28:39;;;;;;;10.55;2.90;;;10.50;99.90;;;;;;5041746;28;20032;-76
2022/11/04 06:31:07;;;;;;;15.05;6.28;;;10.60;99.90;;;;;;5041947;28;20021;-75
2022/11/04 06:33:33;;;;;;;12.30;3.88;;;10.60;99.90;;;;;;5044670;28;20071;-75
2022/11/04 06:36:03;;;;;;;6.20;2.67;;;10.70;99.90;;;;;;5043609;28;20060;-76
2022/11/04 06:38:33;;;;;;;19.50;7.25;;;10.70;99.90;;;;;;5043147;28;20029;-76
2022/11/04 06:41:02;;;;;;;10.23;3.17;;;10.70;99.90;;;;;;5040103;28;20029;-76
2022/11/04 06:43:27;;;;;;;11.68;3.83;;;10.70;99.90;;;;;;5039059;28;20028;-75
2022/11/04 06:45:53;;;;;;;9.40;2.75;;;10.70;99.90;;;;;;5038549;28;20029;-76
2022/11/04 06:48:19;;;;;;;7.93;2.67;;;10.60;99.90;;;;;;5038231;28;20028;-76
2022/11/04 06:50:45;;;;;;;12.07;3.08;;;10.60;99.90;;;;;;5038399;28;20025;-76
2022/11/04 06:53:11;;;;;;;8.57;2.65;;;10.70;99.90;;;;;;5041173;28;20091;-76
2022/11/04 06:55:36;;;;;;;8.95;2.63;;;10.70;99.90;;;;;;5042315;28;20033;-76
2022/11/04 06:58:02;;;;;;;7.60;2.67;;;10.80;99.90;;;;;;5044220;28;20044;-76
2022/11/04 07:00:27;;;;;;;6.93;2.83;;;10.80;99.90;;;;;;5052180;28;20379;-76
2022/11/04 07:02:53;;;;;;;8.18;2.83;;;10.90;99.90;;;;;;5042221;28;20103;-76
2022/11/04 07:05:19;;;;;;;7.35;3.08;;;11.00;99.90;;;;;;5047316;28;20029;-76
2022/11/04 07:07:44;;;;;;;15.02;2.63;;;11.00;99.90;;;;;;5046995;28;20075;-76
2022/11/04 07:10:10;;;;;;;9.73;2.92;;;11.00;99.90;;;;;;5046506;28;20035;-76
2022/11/04 07:12:36;;;;;;;6.53;2.70;;;11.00;99.90;;;;;;5049151;28;20078;-76
2022/11/04 07:15:05;;;;;;;5.55;2.55;;;11.10;99.90;;;;;;5037461;28;20091;-76
2022/11/04 07:17:33;;;;;;;13.02;3.10;;;11.10;99.90;;;;;;5040749;28;20044;-76
2022/11/04 07:19:59;;;;;;;9.43;3.20;;;11.10;99.90;;;;;;5073685;28;20025;-76
2022/11/04 07:22:24;;;;;;;9.35;2.65;;;11.10;99.90;;;;;;5039816;28;20096;-76
2022/11/04 07:24:52;;;;;;;9.88;2.45;;;11.10;99.90;;;;;;5041128;28;20029;-73
2022/11/04 07:27:18;;;;;;;10.02;3.30;;;11.10;99.90;;;;;;5041687;28;20032;-71
2022/11/04 07:29:43;;;;;;;13.55;3.58;;;11.10;99.90;;;;;;5045668;28;20029;-74
2022/11/04 07:32:11;;;;;;;11.82;3.05;;;11.10;99.90;;;;;;5038717;28;20060;-73
2022/11/04 07:34:37;;;;;;;10.60;3.85;;;11.10;99.90;;;;;;5039431;28;20040;-71
2022/11/04 07:37:03;;;;;;;8.02;2.65;;;11.20;99.90;;;;;;5040653;28;20355;-71
2022/11/04 07:39:30;;;;;;;9.75;3.58;;;11.20;99.90;;;;;;5038671;28;20096;-71
2022/11/04 07:41:56;;;;;;;10.63;3.20;;;11.30;99.90;;;;;;5038772;28;20398;-72
2022/11/04 07:44:22;;;;;;;7.32;3.20;;;11.30;99.90;;;;;;5041714;28;20112;-71
2022/11/04 07:46:48;;;;;;;13.60;3.25;;;11.40;99.90;;;;;;5048079;28;20029;-75
2022/11/04 07:49:14;;;;;;;14.68;2.95;;;11.40;99.90;;;;;;5041724;28;20048;-75
2022/11/04 07:51:40;;;;;;;10.35;2.78;;;11.50;99.90;;;;;;5049758;28;20138;-76
2022/11/04 07:54:06;;;;;;;9.25;2.75;;;11.60;99.90;;;;;;5045368;28;20029;-76
2022/11/04 07:56:31;;;;;;;7.13;2.45;;;11.70;99.90;;;;;;5047284;28;20027;-77
2022/11/04 07:58:57;;;;;;;9.27;2.60;;;11.80;99.90;;;;;;5046447;28;20151;-75
2022/11/04 08:01:23;;;;;;;9.93;2.85;;;11.80;99.90;;;;;;5043966;28;20056;-76
2022/11/04 08:03:50;;;;;;;11.70;2.40;;;11.90;99.90;;;;;;5045710;28;20125;-75
2022/11/04 08:06:18;;;;;;;7.00;2.50;;;12.00;99.90;;;;;;5043516;28;20139;-78
2022/11/04 08:08:47;;;;;;;6.82;2.70;;;11.90;99.90;;;;;;5049179;28;20067;-76
2022/11/04 08:11:17;;;;;;;6.25;2.42;;;11.90;99.90;;;;;;5043001;28;20113;-77
2022/11/04 08:13:43;;;;;;;4.78;2.33;;;11.80;99.90;;;;;;5042826;28;20036;-76
2022/11/04 08:16:12;;;;;;;7.93;2.30;;;11.80;99.90;;;;;;5038766;28;20121;-72
2022/11/04 08:18:41;;;;;;;9.27;2.30;;;11.90;99.90;;;;;;5042945;28;20029;-77
2022/11/04 08:21:07;;;;;;;7.95;2.28;;;12.00;99.90;;;;;;5038086;28;20051;-77
2022/11/04 08:23:33;;;;;;;8.52;2.50;;;12.10;99.90;;;;;;5043472;28;20466;-76
2022/11/04 08:25:59;;;;;;;5.60;2.53;;;12.30;99.90;;;;;;5048840;28;20056;-75
2022/11/04 08:28:26;;;;;;;12.55;3.17;;;12.30;99.90;;;;;;5041621;28;20013;-77
2022/11/04 08:30:52;;;;;;;7.25;2.38;;;12.40;99.90;;;;;;5048439;28;20040;-76
2022/11/04 08:33:18;;;;;;;6.40;2.40;;;12.40;99.90;;;;;;5039654;28;20021;-77
2022/11/04 08:35:44;;;;;;;9.80;2.40;;;12.30;99.90;;;;;;5038933;28;20503;-72
2022/11/04 08:38:09;;;;;;;12.38;3.38;;;12.30;99.90;;;;;;5039990;28;20060;-74
2022/11/04 08:40:36;;;;;;;5.53;2.58;;;12.40;99.90;;;;;;5047216;28;20021;-76
2022/11/04 08:43:04;;;;;;;10.82;2.50;;;12.20;99.90;;;;;;5040601;28;20111;-76
2022/11/04 08:45:30;;;;;;;10.18;3.20;;;12.30;99.90;;;;;;5047483;28;20028;-76
2022/11/04 08:47:55;;;;;;;12.98;2.53;;;12.40;99.90;;;;;;5048994;28;20466;-77
2022/11/04 08:50:26;;;;;;;8.82;2.53;;;12.50;99.90;;;;;;5042127;28;20136;-77
2022/11/04 08:52:54;;;;;;;12.98;1.95;;;12.50;99.90;;;;;;5043472;28;20029;-76
2022/11/04 08:55:22;;;;;;;12.02;2.67;;;12.70;99.90;;;;;;5044379;28;20040;-77
2022/11/04 08:57:47;;;;;;;7.20;2.72;;;12.80;99.90;;;;;;5048669;28;20068;-76
2022/11/04 09:00:15;;;;;;;9.20;2.53;;;12.80;99.90;;;;;;5040893;28;20129;-77
2022/11/04 09:02:41;;;;;;;7.35;2.67;;;12.70;99.90;;;;;;5039889;28;20021;-75
2022/11/04 09:05:09;;;;;;;10.35;2.30;;;12.60;99.90;;;;;;5041553;28;20032;-77
2022/11/04 09:07:36;;;;;;;9.13;2.78;;;12.70;99.90;;;;;;5045929;28;20021;-76
2022/11/04 09:10:03;;;;;;;7.78;2.80;;;12.80;99.90;;;;;;5049693;28;20037;-77
2022/11/04 09:12:32;;;;;;;9.20;2.60;;;12.90;99.90;;;;;;5038490;28;20025;-72
2022/11/04 09:15:00;;;;;;;7.80;2.58;;;13.10;99.90;;;;;;5039954;28;20442;-72
2022/11/04 09:17:30;;;;;;;7.53;2.80;;;13.20;99.90;;;;;;5042133;28;20045;-77
2022/11/04 09:19:59;;;;;;;12.43;2.92;;;13.20;99.90;;;;;;5041857;28;20028;-77
2022/11/04 09:22:24;;;;;;;15.00;3.03;;;13.30;99.90;;;;;;5045024;28;20033;-77
2022/11/04 09:24:55;;;;;;;12.85;3.00;;;13.30;99.90;;;;;;5039494;28;20036;-76
2022/11/04 09:27:20;;;;;;;11.48;2.97;;;13.20;99.90;;;;;;5046958;28;20063;-76
2022/11/04 09:29:50;;;;;;;6.05;2.80;;;13.10;99.90;;;;;;5037000;28;20053;-72
2022/11/04 09:32:16;;;;;;;6.68;2.35;;;13.20;99.90;;;;;;5041439;28;20039;-77
2022/11/04 09:34:41;;;;;;;12.93;3.13;;;13.30;99.90;;;;;;5042288;28;20021;-76
2022/11/04 09:37:10;;;;;;;9.18;3.08;;;13.40;99.90;;;;;;5040504;28;20454;-77
2022/11/04 09:39:35;;;;;;;12.73;3.15;;;13.50;99.90;;;;;;5043480;28;20431;-77
2022/11/04 09:42:43;;;;;;;7.28;2.30;;;13.60;99.90;;;;;;5037988;28;20064;-76
2022/11/04 09:45:14;;;;;;;10.88;2.05;;;13.60;99.90;;;;;;5043591;28;20037;-76
2022/11/04 09:47:45;;;;;;;8.05;2.20;;;13.70;99.90;;;;;;5038633;28;20032;-78
2022/11/04 09:50:25;;;;;;;7.78;2.22;;;13.70;99.90;;;;;;5039382;28;20025;-77
2022/11/04 09:53:00;;;;;;;9.80;2.33;;;13.70;99.90;;;;;;5074614;28;20029;-77
2022/11/04 09:55:33;;;;;;;9.38;2.20;;;13.80;99.90;;;;;;5042558;28;20013;-75
2022/11/04 09:57:59;;;;;;;7.35;1.70;;;13.60;99.90;;;;;;5036954;28;20311;-78
2022/11/04 10:00:29;;;;;;;6.55;1.80;;;13.70;99.90;;;;;;5036456;28;20026;-76
2022/11/04 10:03:21;;;;;;;7.55;2.22;;;13.80;99.90;;;;;;5037679;28;20083;-76
2022/11/04 10:05:52;;;;;;;5.70;1.60;;;13.80;99.90;;;;;;5038391;28;20088;-76
2022/11/04 10:08:26;;;;;;;9.15;2.70;;;13.70;99.90;;;;;;5046687;28;20082;-74
2022/11/04 10:11:09;;;;;;;9.70;2.22;;;13.90;99.90;;;;;;5043066;28;20021;-77
2022/11/04 10:13:59;;;;;;;10.52;1.98;;;14.00;99.90;;;;;;5069677;28;20068;-72
2022/11/04 10:16:30;;;;;;;16.27;2.35;;;14.20;99.90;;;;;;5047601;28;20067;-73
2022/11/04 10:19:50;;;;;;;9.25;2.45;;;14.20;99.90;;;;;;5046691;28;20112;-76
2022/11/04 10:22:42;;;;;;;6.95;1.83;;;14.40;99.90;;;;;;5034362;28;20409;-76
2022/11/04 10:25:24;;;;;;;8.55;2.15;;;14.40;99.90;;;;;;5030297;28;20183;-76
2022/11/04 10:27:51;;;;;;;9.67;2.17;;;14.40;99.90;;;;;;5039954;28;20034;-77
2022/11/04 10:30:22;;;;;;;13.35;3.35;;;14.30;99.90;;;;;;5047237;28;20421;-73
2022/11/04 10:32:55;;;;;;;8.82;2.05;;;14.30;99.90;;;;;;5060661;28;20032;-76
2022/11/04 10:35:35;;;;;;;7.90;2.20;;;14.20;99.90;;;;;;5041825;28;20031;-76
2022/11/04 10:38:11;;;;;;;7.68;1.75;;;14.30;99.90;;;;;;5053203;28;20033;-76
2022/11/04 10:40:39;;;;;;;6.90;2.17;;;14.20;99.90;;;;;;5077735;28;20020;-75
2022/11/04 10:43:11;;;;;;;10.85;2.65;;;14.30;99.90;;;;;;5048339;28;20093;-75
2022/11/04 10:46:04;;;;;;;4.88;1.90;;;14.50;99.90;;;;;;5045296;28;20363;-76
2022/11/04 10:48:39;;;;;;;9.15;2.17;;;14.70;99.90;;;;;;5052976;28;20059;-76
2022/11/04 10:51:05;;;;;;;12.02;2.33;;;15.00;99.90;;;;;;5041721;28;20337;-75
2022/11/04 10:53:32;;;;;;;14.63;2.53;;;15.30;99.90;;;;;;5044673;28;20468;-77
2022/11/04 10:56:20;;;;;;;8.55;2.15;;;15.40;99.90;;;;;;5043984;28;20080;-76
2022/11/04 10:58:46;;;;;;;12.15;2.80;;;15.00;99.90;;;;;;5042542;28;20040;-76
2022/11/04 11:01:33;;;;;;;9.15;2.83;;;15.10;99.90;;;;;;5043283;28;20029;-75
2022/11/04 11:04:00;;;;;;;5.50;1.88;;;15.00;99.90;;;;;;5042425;28;20033;-74
2022/11/04 11:06:36;;;;;;;74.10;23.30;;;14.90;99.90;;;;;;5049260;28;20469;-72
2022/11/04 11:09:17;;;;;;;17.83;2.83;;;14.90;99.90;;;;;;5045458;28;20087;-73
2022/11/04 11:11:48;;;;;;;8.75;2.17;;;14.90;99.90;;;;;;5040002;28;20719;-75
2022/11/04 11:14:31;;;;;;;9.52;2.40;;;15.00;99.90;;;;;;5043038;28;20035;-75
2022/11/04 11:17:19;;;;;;;8.80;2.00;;;15.10;99.90;;;;;;5043666;28;20025;-75
2022/11/04 11:20:15;;;;;;;8.52;2.65;;;15.30;99.90;;;;;;5043698;28;20067;-74
2022/11/04 11:22:44;;;;;;;8.35;2.15;;;15.60;99.90;;;;;;5074903;28;20029;-76
2022/11/04 11:25:19;;;;;;;9.30;2.03;;;16.10;99.90;;;;;;5042666;28;20024;-76
2022/11/04 11:27:48;;;;;;;13.20;2.45;;;16.10;99.90;;;;;;5049493;28;20082;-75
2022/11/04 11:30:30;;;;;;;9.32;2.30;;;16.50;99.90;;;;;;5045058;28;20025;-75
2022/11/04 11:33:23;;;;;;;11.00;2.63;;;17.10;99.90;;;;;;5045766;28;20060;-76
2022/11/04 11:36:03;;;;;;;9.13;2.70;;;17.80;99.90;;;;;;5041921;28;20037;-76
2022/11/04 11:38:33;;;;;;;10.95;2.30;;;18.50;99.90;;;;;;5054337;28;20155;-75
2022/11/04 11:41:07;;;;;;;8.45;2.25;;;18.20;99.90;;;;;;5039905;28;20148;-70
2022/11/04 11:43:35;;;;;;;13.15;2.47;;;18.30;99.90;;;;;;5046002;28;20033;-71
2022/11/04 11:46:05;;;;;;;6.75;2.40;;;18.80;99.90;;;;;;5041558;28;20465;-72
2022/11/04 11:48:42;;;;;;;9.15;3.60;;;19.10;99.00;;;;;;5038732;28;20044;-72
2022/11/04 11:51:13;;;;;;;7.43;2.10;;;19.00;97.00;;;;;;5039448;28;20034;-75
2022/11/04 11:53:44;;;;;;;12.13;2.67;;;18.60;98.00;;;;;;5039762;28;20036;-75
2022/11/04 11:56:55;;;;;;;12.35;2.53;;;18.10;99.70;;;;;;5045339;28;20663;-75
2022/11/04 11:59:43;;;;;;;9.00;2.45;;;17.80;99.90;;;;;;5021420;28;20108;-75
2022/11/04 12:02:32;;;;;;;6.07;2.10;;;17.50;99.90;;;;;;5041777;28;20463;-75
2022/11/04 12:05:01;;;;;;;8.88;2.58;;;17.10;99.90;;;;;;5044454;28;20079;-74
2022/11/04 12:07:32;;;;;;;11.88;3.17;;;16.80;99.90;;;;;;5039424;28;20013;-75
2022/11/04 12:10:12;;;;;;;8.88;2.45;;;16.40;99.90;;;;;;5025272;28;20037;-75
2022/11/04 12:12:51;;;;;;;9.43;2.80;;;16.20;99.90;;;;;;5039378;28;20087;-75
2022/11/04 12:15:22;;;;;;;7.07;2.85;;;16.20;99.90;;;;;;5023853;28;20040;-74
2022/11/04 12:18:09;;;;;;;16.50;3.60;;;16.80;99.90;;;;;;5042341;28;20490;-75
2022/11/04 12:21:20;;;;;;;7.47;2.17;;;17.00;99.90;;;;;;5041906;28;20434;-74
2022/11/04 12:23:49;;;;;;;12.60;3.35;;;17.00;99.90;;;;;;4995053;28;20483;-74
2022/11/04 12:26:41;;;;;;;7.88;2.85;;;16.80;99.90;;;;;;5037562;28;20021;-76
2022/11/04 12:29:28;;;;;;;13.93;3.28;;;16.50;99.90;;;;;;5023609;28;20036;-74
2022/11/04 12:32:20;;;;;;;13.25;3.10;;;16.30;99.90;;;;;;5040725;28;20017;-74
2022/11/04 12:34:48;;;;;;;8.65;2.92;;;16.90;99.90;;;;;;5073494;28;20033;-74
2022/11/04 12:37:19;;;;;;;10.10;3.38;;;17.70;99.90;;;;;;5039834;28;20039;-74
2022/11/04 12:39:51;;;;;;;10.25;3.25;;;18.20;99.90;;;;;;5050732;28;20033;-74
2022/11/04 12:42:29;;;;;;;11.32;3.78;;;18.80;99.90;;;;;;5036097;28;20052;-77
2022/11/04 12:45:23;;;;;;;10.35;3.40;;;19.10;96.80;;;;;;5041922;28;20148;-74
2022/11/04 12:47:58;;;;;;;8.43;3.00;;;19.00;95.50;;;;;;5038618;28;20179;-75
2022/11/04 12:50:41;;;;;;;10.77;3.30;;;19.20;97.30;;;;;;5070059;28;20042;-74
2022/11/04 12:53:15;;;;;;;9.02;3.42;;;19.80;94.90;;;;;;5058315;28;20021;-73
2022/11/04 12:56:01;;;;;;;8.40;3.53;;;20.00;93.00;;;;;;5036919;28;20488;-74
2022/11/04 12:58:35;;;;;;;59.17;20.75;;;20.50;92.60;;;;;;5037649;28;20350;-73
2022/11/04 13:01:07;;;;;;;12.90;3.78;;;21.10;91.20;;;;;;5039190;28;20033;-75
2022/11/04 13:03:43;;;;;;;13.40;3.20;;;20.40;90.40;;;;;;5042181;28;20017;-75
2022/11/04 13:06:17;;;;;;;8.63;2.75;;;19.30;91.10;;;;;;5041858;28;20139;-76
2022/11/04 13:08:59;;;;;;;11.48;2.70;;;18.40;93.20;;;;;;5062790;28;20350;-73
2022/11/04 13:11:51;;;;;;;12.18;2.72;;;17.80;94.30;;;;;;5040551;28;20040;-74
2022/11/04 13:14:32;;;;;;;14.40;3.05;;;19.20;92.50;;;;;;5039974;28;20032;-75
2022/11/04 13:17:03;;;;;;;11.30;2.42;;;24.40;79.20;;;;;;5055706;28;20037;-75
2022/11/04 13:19:47;;;;;;;7.07;2.97;;;24.20;74.30;;;;;;5037169;28;20033;-74
2022/11/04 13:22:44;;;;;;;10.40;3.08;;;22.60;77.10;;;;;;5033781;28;20028;-74
2022/11/04 13:25:17;;;;;;;10.13;2.90;;;20.40;82.30;;;;;;5048384;28;20545;-75
2022/11/04 13:27:45;;;;;;;13.23;3.08;;;18.90;90.10;;;;;;5035804;28;20096;-76
2022/11/04 13:30:52;;;;;;;10.88;2.83;;;18.20;91.60;;;;;;5042356;28;20029;-75
2022/11/04 13:33:40;;;;;;;10.75;3.38;;;17.50;93.40;;;;;;5041446;28;20150;-75
2022/11/04 13:36:59;;;;;;;259.85;111.10;;;17.40;94.80;;;;;;5037071;28;20052;-75
2022/11/04 13:39:33;;;;;;;7.72;2.92;;;17.30;95.10;;;;;;5040356;28;20116;-73
2022/11/04 13:42:10;;;;;;;12.77;3.05;;;17.10;96.40;;;;;;5069166;28;20036;-75
2022/11/04 13:44:39;;;;;;;15.27;3.40;;;17.10;96.80;;;;;;5038422;28;20465;-76
2022/11/04 13:47:17;;;;;;;12.23;3.30;;;17.10;97.00;;;;;;5038866;28;20235;-77
2022/11/04 13:49:48;;;;;;;10.95;3.70;;;17.00;97.00;;;;;;5050813;28;20132;-76
2022/11/04 13:52:14;;;;;;;13.63;4.35;;;17.10;97.10;;;;;;5039605;28;20083;-74